createdAt,value
2023-04-09T00:00:32.437Z,9.48
2023-04-09T00:03:00.449Z,10.17
2023-04-09T00:05:28.360Z,9.94
2023-04-09T00:07:56.290Z,10.46
2023-04-09T00:10:23.870Z,10.46
2023-04-09T00:12:51.430Z,10.50
2023-04-09T00:15:29.902Z,10.32
2023-04-09T00:18:00.067Z,10.43
2023-04-09T00:20:28.150Z,10.39
2023-04-09T00:22:55.809Z,10.11
2023-04-09T00:25:23.747Z,9.89
2023-04-09T00:27:51.390Z,10.11
2023-04-09T00:30:19.745Z,10.60
2023-04-09T00:32:47.322Z,10.43
2023-04-09T00:35:16.351Z,10.69
2023-04-09T00:37:44.090Z,10.18
2023-04-09T00:40:12.230Z,10.09
2023-04-09T00:42:40.044Z,10.69
2023-04-09T00:45:08.730Z,9.82
2023-04-09T00:47:37.910Z,9.68
2023-04-09T00:50:06.500Z,9.33
2023-04-09T00:52:36.353Z,9.03
2023-04-09T00:55:05.757Z,9.46
2023-04-09T00:57:33.399Z,10.11
2023-04-09T01:00:01.659Z,9.18
2023-04-09T01:02:29.735Z,10.04
2023-04-09T01:04:59.470Z,9.45
2023-04-09T01:07:39.659Z,9.97
2023-04-09T01:10:21.582Z,10.02
2023-04-09T01:13:04.114Z,9.52
2023-04-09T01:15:38.429Z,9.46
2023-04-09T01:18:11.062Z,9.14
2023-04-09T01:20:42.396Z,9.38
2023-04-09T01:23:19.002Z,8.84
2023-04-09T01:26:03.526Z,9.30
2023-04-09T01:28:35.161Z,9.34
2023-04-09T01:31:09.694Z,9.65
2023-04-09T01:33:38.590Z,9.57
2023-04-09T01:36:07.353Z,9.09
2023-04-09T01:38:39.448Z,8.97
2023-04-09T01:41:09.348Z,9.30
2023-04-09T01:43:41.225Z,9.23
2023-04-09T01:46:10.754Z,9.21
2023-04-09T01:48:39.316Z,8.47
2023-04-09T01:51:07.111Z,8.22
2023-04-09T01:53:34.902Z,8.14
2023-04-09T01:56:02.720Z,8.15
2023-04-09T01:58:30.269Z,8.86
2023-04-09T02:01:06.936Z,9.17
2023-04-09T02:03:39.937Z,9.31
2023-04-09T02:06:13.829Z,9.48
2023-04-09T02:08:46.540Z,9.75
2023-04-09T02:11:15.849Z,9.78
2023-04-09T02:13:45.621Z,8.99
2023-04-09T02:16:18.088Z,9.25
2023-04-09T02:18:45.709Z,9.07
2023-04-09T02:21:13.310Z,9.04
2023-04-09T02:23:40.907Z,8.18
2023-04-09T02:26:08.453Z,8.75
2023-04-09T02:28:36.045Z,8.76
2023-04-09T02:31:04.170Z,9.02
2023-04-09T02:33:33.534Z,9.15
2023-04-09T02:36:01.186Z,8.18
2023-04-09T02:38:29.231Z,8.08
2023-04-09T02:40:56.989Z,8.64
2023-04-09T02:43:24.645Z,9.12
2023-04-09T02:45:52.371Z,9.22
2023-04-09T02:48:20.105Z,8.94
2023-04-09T02:50:49.145Z,9.03
2023-04-09T02:53:16.793Z,8.66
2023-04-09T02:55:44.353Z,8.35
2023-04-09T02:58:11.948Z,8.36
2023-04-09T03:00:39.582Z,8.94
2023-04-09T03:03:08.483Z,8.85
2023-04-09T03:05:36.360Z,8.70
2023-04-09T03:08:05.573Z,9.03
2023-04-09T03:10:33.210Z,8.70
2023-04-09T03:13:00.965Z,9.00
2023-04-09T03:15:28.624Z,8.29
2023-04-09T03:17:56.326Z,7.75
2023-04-09T03:20:23.996Z,7.59
2023-04-09T03:22:51.880Z,7.23
2023-04-09T03:25:21.352Z,7.64
2023-04-09T03:27:48.990Z,7.70
2023-04-09T03:30:19.062Z,8.29
2023-04-09T03:32:48.565Z,8.69
2023-04-09T03:35:16.314Z,8.75
2023-04-09T03:37:44.117Z,8.28
2023-04-09T03:40:12.934Z,8.50
2023-04-09T03:42:44.026Z,8.46
2023-04-09T03:45:11.689Z,8.36
2023-04-09T03:47:39.481Z,8.17
2023-04-09T03:50:07.936Z,8.23
2023-04-09T03:52:35.644Z,7.73
2023-04-09T03:55:03.766Z,8.18
2023-04-09T03:57:31.537Z,7.72
2023-04-09T04:00:02.892Z,7.70
2023-04-09T04:02:32.994Z,8.14
2023-04-09T04:05:03.891Z,8.14
2023-04-09T04:07:32.818Z,8.28
2023-04-09T04:10:00.593Z,7.95
2023-04-09T04:12:28.236Z,8.47
2023-04-09T04:14:55.849Z,8.91
2023-04-09T04:17:24.914Z,9.05
2023-04-09T04:19:52.578Z,9.12
2023-04-09T04:22:20.326Z,8.41
2023-04-09T04:24:47.969Z,7.89
2023-04-09T04:27:15.614Z,7.57
2023-04-09T04:29:43.242Z,7.61
2023-04-09T04:32:10.908Z,8.31
2023-04-09T04:34:39.924Z,8.73
2023-04-09T04:37:08.623Z,8.76
2023-04-09T04:39:36.302Z,8.44
2023-04-09T04:42:06.409Z,8.52
2023-04-09T04:44:33.983Z,8.23
2023-04-09T04:47:01.611Z,8.57
2023-04-09T04:49:29.479Z,9.06
2023-04-09T04:51:58.746Z,8.56
2023-04-09T04:54:26.694Z,8.57
2023-04-09T04:56:54.355Z,7.95
2023-04-09T04:59:22.044Z,8.39
2023-04-09T05:01:51.490Z,8.63
2023-04-09T05:04:19.034Z,8.39
2023-04-09T05:06:46.737Z,9.05
2023-04-09T05:09:15.829Z,9.23
2023-04-09T05:11:43.605Z,8.68
2023-04-09T05:14:11.357Z,8.13
2023-04-09T05:16:39.099Z,8.46
2023-04-09T05:19:06.902Z,8.10
2023-04-09T05:21:34.865Z,8.69
2023-04-09T05:24:02.816Z,9.20
2023-04-09T05:26:31.934Z,8.72
2023-04-09T05:28:59.628Z,8.92
2023-04-09T05:31:27.406Z,8.45
2023-04-09T05:33:54.960Z,8.99
2023-04-09T05:36:22.677Z,8.52
2023-04-09T05:38:50.665Z,8.07
2023-04-09T05:41:18.918Z,8.54
2023-04-09T05:43:47.928Z,8.70
2023-04-09T05:46:15.654Z,8.58
2023-04-09T05:48:43.290Z,8.61
2023-04-09T05:51:10.936Z,8.74
2023-04-09T05:53:38.572Z,8.54
2023-04-09T05:56:13.710Z,8.01
2023-04-09T05:58:41.582Z,7.85
2023-04-09T06:01:10.651Z,8.31
2023-04-09T06:03:38.375Z,8.15
2023-04-09T06:06:06.220Z,8.52
2023-04-09T06:08:33.930Z,7.72
2023-04-09T06:11:01.754Z,7.43
2023-04-09T06:13:29.437Z,7.34
2023-04-09T06:15:57.088Z,7.39
2023-04-09T06:18:26.207Z,8.16
2023-04-09T06:21:02.005Z,8.71
2023-04-09T06:23:29.716Z,9.10
2023-04-09T06:25:57.366Z,9.35
2023-04-09T06:28:26.048Z,9.33
2023-04-09T06:30:53.781Z,8.62
2023-04-09T06:33:22.053Z,9.01
2023-04-09T06:35:51.115Z,9.51
2023-04-09T06:38:18.835Z,9.57
2023-04-09T06:40:46.510Z,11.34
2023-04-09T06:43:14.187Z,11.62
2023-04-09T06:45:42.115Z,11.47
2023-04-09T06:48:09.650Z,11.96
2023-04-09T06:50:37.548Z,12.38
2023-04-09T06:53:08.096Z,13.44
2023-04-09T06:55:35.803Z,13.89
2023-04-09T06:58:03.942Z,13.81
2023-04-09T07:00:31.668Z,13.85
2023-04-09T07:02:59.934Z,13.79
2023-04-09T07:05:27.847Z,14.29
2023-04-09T07:07:55.528Z,14.80
2023-04-09T07:10:24.524Z,13.93
2023-04-09T07:12:54.480Z,14.24
2023-04-09T07:15:22.051Z,14.35
2023-04-09T07:17:49.776Z,12.02
2023-04-09T07:20:17.379Z,11.70
2023-04-09T07:22:45.081Z,11.98
2023-04-09T07:25:12.813Z,12.13
2023-04-09T07:27:42.277Z,11.41
2023-04-09T07:30:11.305Z,11.84
2023-04-09T07:32:39.144Z,13.30
2023-04-09T07:35:08.566Z,13.58
2023-04-09T07:37:36.239Z,14.49
2023-04-09T07:40:04.984Z,13.95
2023-04-09T07:42:32.729Z,14.32
2023-04-09T07:45:02.782Z,15.09
2023-04-09T07:47:30.590Z,14.58
2023-04-09T07:49:58.208Z,14.42
2023-04-09T07:52:25.770Z,13.97
2023-04-09T07:54:53.422Z,13.58
2023-04-09T07:57:21.081Z,14.82
2023-04-09T07:59:48.747Z,14.82
2023-04-09T08:02:17.940Z,14.64
2023-04-09T08:04:45.780Z,13.75
2023-04-09T08:07:13.558Z,14.33
2023-04-09T08:09:41.224Z,15.45
2023-04-09T08:12:10.351Z,15.12
2023-04-09T08:14:38.108Z,15.63
2023-04-09T08:17:05.825Z,15.24
2023-04-09T08:19:34.955Z,15.33
2023-04-09T08:22:02.618Z,15.71
2023-04-09T08:24:31.407Z,15.03
2023-04-09T08:26:59.069Z,14.78
2023-04-09T08:29:26.996Z,14.88
2023-04-09T08:31:54.817Z,13.08
2023-04-09T08:34:22.534Z,13.78
2023-04-09T08:36:51.769Z,13.52
2023-04-09T08:39:19.502Z,12.36
2023-04-09T08:41:47.636Z,12.37
2023-04-09T08:44:15.211Z,14.17
2023-04-09T08:46:43.368Z,14.32
2023-04-09T08:49:13.984Z,14.37
2023-04-09T08:51:46.529Z,15.17
2023-04-09T08:54:17.340Z,14.98
2023-04-09T08:56:45.485Z,14.82
2023-04-09T08:59:15.555Z,13.07
2023-04-09T09:01:44.696Z,14.67
2023-04-09T09:04:12.684Z,14.99
2023-04-09T09:06:41.606Z,14.40
2023-04-09T09:09:12.236Z,14.31
2023-04-09T09:11:43.753Z,14.04
2023-04-09T09:14:14.683Z,14.72
2023-04-09T09:16:44.588Z,15.47
2023-04-09T09:19:30.805Z,15.82
2023-04-09T09:22:01.074Z,15.22
2023-04-09T09:24:30.744Z,15.26
2023-04-09T09:27:00.624Z,14.31
2023-04-09T09:29:29.650Z,15.01
2023-04-09T09:31:57.308Z,14.98
2023-04-09T09:34:25.171Z,14.99
2023-04-09T09:36:53.113Z,13.33
2023-04-09T09:39:21.070Z,15.03
2023-04-09T09:42:08.380Z,13.47
2023-04-09T09:44:36.086Z,14.60
2023-04-09T09:47:05.921Z,15.13
2023-04-09T09:49:33.861Z,13.26
2023-04-09T09:52:11.357Z,11.77
2023-04-09T09:54:43.967Z,14.43
2023-04-09T09:57:19.016Z,14.33
2023-04-09T09:59:53.548Z,15.69
2023-04-09T10:02:24.309Z,14.92
2023-04-09T10:04:53.113Z,14.20
2023-04-09T10:07:21.727Z,14.44
2023-04-09T10:09:56.694Z,14.32
2023-04-09T10:12:27.089Z,15.59
2023-04-09T10:14:58.987Z,15.61
2023-04-09T10:17:26.773Z,14.98
2023-04-09T10:20:01.731Z,15.30
2023-04-09T10:22:34.577Z,12.85
2023-04-09T10:25:04.181Z,14.59
2023-04-09T10:27:33.205Z,15.74
2023-04-09T10:30:01.925Z,15.78
2023-04-09T10:32:36.589Z,16.83
2023-04-09T10:35:05.005Z,16.94
2023-04-09T10:37:35.667Z,16.04
2023-04-09T10:40:04.571Z,14.37
2023-04-09T10:42:38.952Z,15.79
2023-04-09T10:45:08.869Z,15.42
2023-04-09T10:47:38.805Z,16.78
2023-04-09T10:50:22.409Z,16.27
2023-04-09T10:52:53.444Z,16.99
2023-04-09T10:55:34.020Z,16.05
2023-04-09T10:58:03.535Z,15.51
2023-04-09T11:00:31.300Z,16.16
2023-04-09T11:03:20.936Z,16.21
2023-04-09T11:05:52.599Z,15.99
2023-04-09T11:08:21.673Z,15.30
2023-04-09T11:10:51.970Z,15.17
2023-04-09T11:13:22.343Z,15.41
2023-04-09T11:15:50.407Z,16.04
2023-04-09T11:18:22.638Z,15.22
2023-04-09T11:20:54.792Z,15.49
2023-04-09T11:23:24.034Z,15.55
2023-04-09T11:25:53.214Z,15.82
2023-04-09T11:28:23.928Z,16.17
2023-04-09T11:30:52.642Z,16.61
2023-04-09T11:33:20.705Z,16.45
2023-04-09T11:35:49.179Z,16.37
2023-04-09T11:38:17.659Z,16.45
2023-04-09T11:40:45.508Z,16.64
2023-04-09T11:43:15.057Z,15.98
2023-04-09T11:45:45.134Z,16.75
2023-04-09T11:48:13.599Z,15.13
2023-04-09T11:50:41.503Z,16.38
2023-04-09T11:53:21.087Z,14.81
2023-04-09T11:55:52.589Z,13.73
2023-04-09T11:58:22.895Z,13.70
2023-04-09T12:00:58.739Z,15.99
2023-04-09T12:03:31.315Z,15.75
2023-04-09T12:06:01.331Z,16.52
2023-04-09T12:08:29.096Z,15.58
2023-04-09T12:10:56.882Z,16.62
2023-04-09T12:13:32.977Z,16.66
2023-04-09T12:16:02.271Z,15.94
2023-04-09T12:18:30.377Z,15.60
2023-04-09T12:20:58.036Z,15.74
2023-04-09T12:23:25.674Z,16.32
2023-04-09T12:25:53.418Z,16.44
2023-04-09T12:28:21.227Z,16.32
2023-04-09T12:30:50.917Z,16.56
2023-04-09T12:33:20.294Z,16.19
2023-04-09T12:35:47.940Z,16.02
2023-04-09T12:38:15.888Z,15.92
2023-04-09T12:40:45.639Z,15.57
2023-04-09T12:43:13.350Z,16.17
2023-04-09T12:45:41.035Z,16.40
2023-04-09T12:48:08.763Z,14.82
2023-04-09T12:50:37.897Z,14.33
2023-04-09T12:53:05.883Z,15.58
2023-04-09T12:55:35.142Z,14.79
2023-04-09T12:58:02.840Z,14.36
2023-04-09T13:00:30.593Z,12.87
2023-04-09T13:02:58.340Z,12.65
2023-04-09T13:05:26.101Z,12.01
2023-04-09T13:07:55.361Z,13.22
2023-04-09T13:10:23.055Z,14.08
2023-04-09T13:12:51.040Z,14.08
2023-04-09T13:15:18.780Z,14.92
2023-04-09T13:17:46.541Z,15.77
2023-04-09T13:20:14.712Z,14.49
2023-04-09T13:22:42.395Z,14.42
2023-04-09T13:25:13.268Z,15.29
2023-04-09T13:27:42.468Z,16.21
2023-04-09T13:30:10.578Z,16.86
2023-04-09T13:32:38.469Z,15.29
2023-04-09T13:35:07.373Z,15.63
2023-04-09T13:37:35.220Z,15.98
2023-04-09T13:40:02.888Z,17.66
2023-04-09T13:42:31.963Z,17.21
2023-04-09T13:45:06.970Z,17.12
2023-04-09T13:47:34.759Z,17.60
2023-04-09T13:50:02.951Z,17.29
2023-04-09T13:52:31.718Z,17.91
2023-04-09T13:54:59.399Z,17.92
2023-04-09T13:57:26.980Z,17.80
2023-04-09T13:59:56.083Z,17.59
2023-04-09T14:02:23.879Z,17.28
2023-04-09T14:04:51.793Z,17.85
2023-04-09T14:07:19.438Z,17.62
2023-04-09T14:09:47.079Z,17.17
2023-04-09T14:12:14.899Z,18.01
2023-04-09T14:14:42.557Z,19.09
2023-04-09T14:17:13.310Z,18.42
2023-04-09T14:19:41.026Z,18.37
2023-04-09T14:22:09.019Z,18.46
2023-04-09T14:24:36.938Z,18.14
2023-04-09T14:27:04.711Z,17.71
2023-04-09T14:29:32.325Z,18.17
2023-04-09T14:32:00.036Z,18.59
2023-04-09T14:34:30.581Z,17.86
2023-04-09T14:36:59.025Z,17.74
2023-04-09T14:39:29.027Z,18.12
2023-04-09T14:41:56.703Z,17.90
2023-04-09T14:44:24.759Z,17.80
2023-04-09T14:46:52.556Z,17.53
2023-04-09T14:49:20.726Z,17.24
2023-04-09T14:51:51.085Z,17.68
2023-04-09T14:54:18.932Z,17.88
2023-04-09T14:56:46.580Z,17.08
2023-04-09T14:59:14.478Z,18.00
2023-04-09T15:01:42.538Z,18.22
2023-04-09T15:04:11.468Z,17.42
2023-04-09T15:06:40.369Z,17.26
2023-04-09T15:09:09.784Z,17.73
2023-04-09T15:11:37.566Z,17.96
2023-04-09T15:14:05.297Z,17.54
2023-04-09T15:16:33.198Z,17.39
2023-04-09T15:19:00.859Z,17.24
2023-04-09T15:21:28.490Z,17.27
2023-04-09T15:23:56.168Z,17.13
2023-04-09T15:26:25.482Z,17.31
2023-04-09T15:29:01.583Z,17.38
2023-04-09T15:31:29.293Z,17.15
2023-04-09T15:33:58.000Z,17.57
2023-04-09T15:36:26.239Z,18.07
2023-04-09T15:38:56.271Z,17.94
2023-04-09T15:41:25.449Z,18.27
2023-04-09T15:43:53.384Z,18.35
2023-04-09T15:46:21.057Z,16.17
2023-04-09T15:48:49.220Z,16.15
2023-04-09T15:51:16.896Z,17.79
2023-04-09T15:53:44.563Z,17.64
2023-04-09T15:56:12.595Z,17.59
2023-04-09T15:58:42.010Z,17.88
2023-04-09T16:01:10.351Z,18.64
2023-04-09T16:03:41.580Z,15.92
2023-04-09T16:06:11.316Z,15.97
2023-04-09T16:08:39.592Z,17.92
2023-04-09T16:11:10.127Z,17.41
2023-04-09T16:13:37.811Z,17.58
2023-04-09T16:16:07.471Z,17.73
2023-04-09T16:18:35.604Z,17.52
2023-04-09T16:21:03.590Z,16.77
2023-04-09T16:23:31.312Z,17.05
2023-04-09T16:25:59.269Z,17.57
2023-04-09T16:28:26.977Z,17.29
2023-04-09T16:30:55.275Z,17.81
2023-04-09T16:33:24.302Z,17.04
2023-04-09T16:35:52.055Z,17.18
2023-04-09T16:38:19.664Z,14.51
2023-04-09T16:40:47.329Z,15.00
2023-04-09T16:43:16.456Z,13.87
2023-04-09T16:45:44.297Z,13.59
2023-04-09T16:48:12.312Z,12.66
2023-04-09T16:50:41.892Z,12.88
2023-04-09T16:53:11.933Z,13.12
2023-04-09T16:55:39.518Z,12.97
2023-04-09T16:58:07.179Z,12.78
2023-04-09T17:00:35.083Z,13.56
2023-04-09T17:03:03.048Z,14.21
2023-04-09T17:05:30.883Z,13.60
2023-04-09T17:07:59.885Z,13.39
2023-04-09T17:10:27.567Z,13.74
2023-04-09T17:12:55.222Z,13.23
2023-04-09T17:15:23.161Z,13.14
2023-04-09T17:17:51.203Z,13.27
2023-04-09T17:20:19.258Z,13.20
2023-04-09T17:22:47.068Z,13.07
2023-04-09T17:25:16.608Z,13.08
2023-04-09T17:27:44.357Z,13.03
2023-04-09T17:30:12.390Z,12.95
2023-04-09T17:32:40.536Z,12.94
2023-04-09T17:35:09.008Z,13.06
2023-04-09T17:37:37.149Z,13.07
2023-04-09T17:40:06.102Z,13.07
2023-04-09T17:42:35.252Z,13.07
2023-04-09T17:45:03.986Z,13.22
2023-04-09T17:47:31.962Z,13.18
2023-04-09T17:50:01.317Z,13.40
2023-04-09T17:52:28.903Z,13.22
2023-04-09T17:54:57.645Z,13.21
2023-04-09T17:57:25.329Z,13.75
2023-04-09T17:59:54.419Z,14.40
2023-04-09T18:02:22.257Z,14.69
2023-04-09T18:04:50.286Z,14.64
2023-04-09T18:07:18.104Z,14.90
2023-04-09T18:09:46.138Z,14.79
2023-04-09T18:12:13.861Z,15.38
2023-04-09T18:14:41.596Z,15.14
2023-04-09T18:17:10.650Z,15.26
2023-04-09T18:19:38.287Z,15.71
2023-04-09T18:22:05.928Z,15.50
2023-04-09T18:24:33.609Z,15.84
2023-04-09T18:27:02.638Z,15.13
2023-04-09T18:29:32.466Z,15.83
2023-04-09T18:32:00.167Z,15.97
2023-04-09T18:34:29.141Z,16.08
2023-04-09T18:36:56.700Z,15.84
2023-04-09T18:39:24.278Z,15.28
2023-04-09T18:41:51.928Z,15.19
2023-04-09T18:44:19.827Z,15.65
2023-04-09T18:46:50.761Z,15.33
2023-04-09T18:49:18.515Z,15.33
2023-04-09T18:51:47.431Z,15.39
2023-04-09T18:54:14.978Z,14.37
2023-04-09T18:56:44.728Z,14.86
2023-04-09T18:59:14.107Z,15.23
2023-04-09T19:01:42.131Z,14.89
2023-04-09T19:04:10.473Z,15.01
2023-04-09T19:06:38.312Z,15.27
2023-04-09T19:09:07.341Z,15.24
2023-04-09T19:11:34.907Z,15.01
2023-04-09T19:14:03.434Z,14.99
2023-04-09T19:16:31.173Z,15.13
2023-04-09T19:18:58.861Z,15.08
2023-04-09T19:21:26.598Z,15.16
2023-04-09T19:23:54.277Z,15.05
2023-04-09T19:26:23.286Z,15.32
2023-04-09T19:28:50.983Z,15.47
2023-04-09T19:31:18.671Z,14.71
2023-04-09T19:33:46.373Z,14.23
2023-04-09T19:36:13.997Z,14.34
2023-04-09T19:38:41.719Z,13.76
2023-04-09T19:41:09.324Z,13.94
2023-04-09T19:43:40.923Z,14.43
2023-04-09T19:46:09.310Z,14.32
2023-04-09T19:48:37.223Z,14.66
2023-04-09T19:51:05.306Z,14.77
2023-04-09T19:53:32.931Z,15.00
2023-04-09T19:56:00.580Z,14.74
2023-04-09T19:58:28.268Z,14.81
2023-04-09T20:00:57.258Z,14.69
2023-04-09T20:03:25.128Z,14.47
2023-04-09T20:05:52.906Z,14.10
2023-04-09T20:08:20.488Z,14.33
2023-04-09T20:10:48.037Z,13.52
2023-04-09T20:13:15.591Z,13.88
2023-04-09T20:15:43.246Z,14.21
2023-04-09T20:18:12.226Z,13.95
2023-04-09T20:20:39.974Z,13.65
2023-04-09T20:23:07.637Z,14.14
2023-04-09T20:25:35.300Z,14.10
2023-04-09T20:28:03.329Z,13.81
2023-04-09T20:30:31.028Z,12.48
2023-04-09T20:32:58.753Z,13.31
2023-04-09T20:35:27.812Z,12.87
2023-04-09T20:37:55.473Z,13.60
2023-04-09T20:40:24.910Z,13.53
2023-04-09T20:42:52.597Z,13.50
2023-04-09T20:45:20.253Z,13.12
2023-04-09T20:47:49.736Z,13.49
2023-04-09T20:50:17.451Z,13.32
2023-04-09T20:52:46.456Z,12.73
2023-04-09T20:55:14.162Z,12.72
2023-04-09T20:57:41.865Z,12.49
2023-04-09T21:00:10.298Z,13.01
2023-04-09T21:02:38.666Z,13.28
2023-04-09T21:05:19.539Z,12.97
2023-04-09T21:07:52.023Z,13.21
2023-04-09T21:10:20.054Z,13.30
2023-04-09T21:12:47.789Z,13.33
2023-04-09T21:15:15.699Z,13.12
2023-04-09T21:17:43.377Z,13.70
2023-04-09T21:20:12.026Z,12.77
2023-04-09T21:22:39.603Z,12.87
2023-04-09T21:25:09.501Z,12.25
2023-04-09T21:27:37.282Z,12.10
2023-04-09T21:30:07.843Z,12.04
2023-04-09T21:32:35.630Z,11.77
2023-04-09T21:35:03.860Z,11.52
2023-04-09T21:37:31.530Z,11.42
2023-04-09T21:39:59.171Z,11.43
2023-04-09T21:42:28.185Z,11.30
2023-04-09T21:44:55.845Z,11.24
2023-04-09T21:47:23.662Z,11.21
2023-04-09T21:49:51.302Z,11.19
2023-04-09T21:52:21.527Z,11.19
2023-04-09T21:54:49.168Z,11.10
2023-04-09T21:57:16.968Z,11.04
2023-04-09T21:59:45.964Z,11.01
2023-04-09T22:02:13.715Z,11.07
2023-04-09T22:04:41.723Z,11.11
2023-04-09T22:07:10.725Z,11.10
2023-04-09T22:09:38.514Z,11.13
2023-04-09T22:12:06.169Z,11.15
2023-04-09T22:14:34.099Z,11.21
2023-04-09T22:17:03.572Z,11.34
2023-04-09T22:19:32.907Z,11.30
2023-04-09T22:22:00.871Z,11.47
2023-04-09T22:24:28.542Z,12.04
2023-04-09T22:26:56.428Z,11.67
2023-04-09T22:29:24.461Z,11.87
2023-04-09T22:31:52.223Z,11.33
2023-04-09T22:34:22.194Z,10.84
2023-04-09T22:36:50.409Z,10.69
2023-04-09T22:39:18.037Z,11.29
2023-04-09T22:41:46.046Z,11.62
2023-04-09T22:44:13.710Z,11.66
2023-04-09T22:46:41.561Z,12.19
2023-04-09T22:49:10.772Z,12.07
2023-04-09T22:51:41.671Z,12.37
2023-04-09T22:54:09.607Z,12.38
2023-04-09T22:56:37.444Z,11.78
2023-04-09T22:59:05.540Z,12.16
2023-04-09T23:01:33.565Z,11.82
2023-04-09T23:04:01.296Z,12.39
2023-04-09T23:06:28.976Z,12.84
2023-04-09T23:08:57.976Z,12.93
2023-04-09T23:11:25.903Z,12.68
2023-04-09T23:13:53.473Z,12.47
2023-04-09T23:16:21.067Z,12.24
2023-04-09T23:18:48.775Z,12.06
2023-04-09T23:21:16.729Z,12.30
2023-04-09T23:23:45.703Z,12.38
2023-04-09T23:26:15.011Z,11.99
2023-04-09T23:28:42.711Z,12.09
2023-04-09T23:31:10.465Z,12.00
2023-04-09T23:33:38.246Z,11.64
2023-04-09T23:36:06.563Z,11.76
2023-04-09T23:38:34.358Z,11.87
2023-04-09T23:41:02.411Z,11.73
2023-04-09T23:43:31.544Z,11.36
2023-04-09T23:45:59.182Z,11.52
2023-04-09T23:48:26.845Z,10.86
2023-04-09T23:50:54.499Z,11.34
2023-04-09T23:53:22.113Z,10.45
2023-04-09T23:55:50.153Z,10.94
2023-04-09T23:58:17.792Z,11.39
